CheckWX is a tool to help pilots better visualize weather data.  It is not intended as a substitute for an official pre-flight weather briefing.

06:15:12 UTC

KHHR METAR
Jack Northrop Field / Hawthorne Municipal Airport
Hawthorne, California, USA
Current

22 mins ago

KHHR 230553Z AUTO 19003KT 9SM CLR 16/12 A2998 RMK AO2 SLP151 T01610122 10189 20161 51017
Observed
Apr-23 @ 05:53 UTC
Wind
  • 190° at 3 KTS
Visibility
9 SM
Flight Rules
VFR
Cloud Levels
  • Clear skies
Temperature
16°C / 61°F
Dewpoint
12°C / 54°F
Humidity
77%
Altimeter
29.98" Hg
Pressure
1015.22 hPa
Previous

1 hour ago

KHHR 230453Z 21003KT 10SM CLR 17/12 A2998 RMK AO2 SLP150 T01670117
Observed
Apr-23 @ 04:53 UTC
Wind
  • 210° at 3 KTS
Visibility
10 SM
Flight Rules
VFR
Cloud Levels
  • Clear skies
Temperature
17°C / 63°F
Dewpoint
12°C / 54°F
Humidity
73%
Altimeter
29.98" Hg
Pressure
1015.22 hPa
Previous

2 hours ago

KHHR 230353Z 21004KT 10SM CLR 16/12 A2996 RMK AO2 SLP144 T01610117
Observed
Apr-23 @ 03:53 UTC
Wind
  • 210° at 4 KTS
Visibility
10 SM
Flight Rules
VFR
Cloud Levels
  • Clear skies
Temperature
16°C / 61°F
Dewpoint
12°C / 54°F
Humidity
77%
Altimeter
29.96" Hg
Pressure
1014.52 hPa